sensor_id;sensor_type;location;lat;lon;timestamp;temperature;humidity
12568;DHT22;6349;50.904;6.136;2024-02-26T00:01:31;6.30;99.90
12568;DHT22;6349;50.904;6.136;2024-02-26T00:03:33;6.30;99.90
12568;DHT22;6349;50.904;6.136;2024-02-26T00:05:36;6.30;99.90
12568;DHT22;6349;50.904;6.136;2024-02-26T00:07:38;6.30;99.90
12568;DHT22;6349;50.904;6.136;2024-02-26T00:09:39;6.30;99.90
12568;DHT22;6349;50.904;6.136;2024-02-26T00:11:40;6.30;99.90
12568;DHT22;6349;50.904;6.136;2024-02-26T00:13:40;6.20;99.90
12568;DHT22;6349;50.904;6.136;2024-02-26T00:15:41;6.20;99.90
12568;DHT22;6349;50.904;6.136;2024-02-26T00:17:41;6.20;99.90
12568;DHT22;6349;50.904;6.136;2024-02-26T00:19:42;6.30;99.90
12568;DHT22;6349;50.904;6.136;2024-02-26T00:21:43;6.30;99.90
12568;DHT22;6349;50.904;6.136;2024-02-26T00:23:43;6.20;99.90
12568;DHT22;6349;50.904;6.136;2024-02-26T00:25:44;6.20;99.90
12568;DHT22;6349;50.904;6.136;2024-02-26T00:27:44;6.20;99.90
12568;DHT22;6349;50.904;6.136;2024-02-26T00:29:45;6.30;99.90
12568;DHT22;6349;50.904;6.136;2024-02-26T00:31:45;6.20;99.90
12568;DHT22;6349;50.904;6.136;2024-02-26T00:33:46;6.20;99.90
12568;DHT22;6349;50.904;6.136;2024-02-26T00:35:47;6.20;99.90
12568;DHT22;6349;50.904;6.136;2024-02-26T00:37:47;6.20;99.90
12568;DHT22;6349;50.904;6.136;2024-02-26T00:39:48;6.20;99.90
12568;DHT22;6349;50.904;6.136;2024-02-26T00:41:49;6.20;99.90
12568;DHT22;6349;50.904;6.136;2024-02-26T00:43:51;6.20;99.90
12568;DHT22;6349;50.904;6.136;2024-02-26T00:45:52;6.30;99.90
12568;DHT22;6349;50.904;6.136;2024-02-26T00:47:53;6.20;99.90
12568;DHT22;6349;50.904;6.136;2024-02-26T00:49:53;6.30;99.90
12568;DHT22;6349;50.904;6.136;2024-02-26T00:51:54;6.30;99.90
12568;DHT22;6349;50.904;6.136;2024-02-26T00:53:56;6.30;99.90
12568;DHT22;6349;50.904;6.136;2024-02-26T00:55:57;6.30;99.90
12568;DHT22;6349;50.904;6.136;2024-02-26T00:57:59;6.30;99.90
12568;DHT22;6349;50.904;6.136;2024-02-26T01:00:00;6.30;99.90
12568;DHT22;6349;50.904;6.136;2024-02-26T01:02:01;6.30;99.90
12568;DHT22;6349;50.904;6.136;2024-02-26T01:04:02;6.30;99.90
12568;DHT22;6349;50.904;6.136;2024-02-26T01:06:03;6.30;99.90
12568;DHT22;6349;50.904;6.136;2024-02-26T01:08:04;6.30;99.90
12568;DHT22;6349;50.904;6.136;2024-02-26T01:10:06;6.30;99.90
12568;DHT22;6349;50.904;6.136;2024-02-26T01:12:07;6.30;99.90
12568;DHT22;6349;50.904;6.136;2024-02-26T01:14:07;6.30;99.90
12568;DHT22;6349;50.904;6.136;2024-02-26T01:16:08;6.30;99.90
12568;DHT22;6349;50.904;6.136;2024-02-26T01:18:09;6.30;99.90
12568;DHT22;6349;50.904;6.136;2024-02-26T01:20:10;6.30;99.90
12568;DHT22;6349;50.904;6.136;2024-02-26T01:22:10;6.30;99.90
12568;DHT22;6349;50.904;6.136;2024-02-26T01:24:11;6.30;99.90
12568;DHT22;6349;50.904;6.136;2024-02-26T01:26:12;6.30;99.90
12568;DHT22;6349;50.904;6.136;2024-02-26T01:28:12;6.30;99.90
12568;DHT22;6349;50.904;6.136;2024-02-26T01:30:13;6.30;99.90
12568;DHT22;6349;50.904;6.136;2024-02-26T01:32:16;6.30;99.90
12568;DHT22;6349;50.904;6.136;2024-02-26T01:34:17;6.30;99.90
12568;DHT22;6349;50.904;6.136;2024-02-26T01:36:18;6.30;99.90
12568;DHT22;6349;50.904;6.136;2024-02-26T01:38:19;6.20;99.90
12568;DHT22;6349;50.904;6.136;2024-02-26T01:40:19;6.20;99.90
12568;DHT22;6349;50.904;6.136;2024-02-26T01:42:20;6.30;99.90
12568;DHT22;6349;50.904;6.136;2024-02-26T01:44:21;6.30;99.90
12568;DHT22;6349;50.904;6.136;2024-02-26T01:46:22;6.30;99.90
12568;DHT22;6349;50.904;6.136;2024-02-26T01:48:23;6.30;99.90
12568;DHT22;6349;50.904;6.136;2024-02-26T01:50:23;6.30;99.90
12568;DHT22;6349;50.904;6.136;2024-02-26T01:52:24;6.30;99.90
12568;DHT22;6349;50.904;6.136;2024-02-26T01:54:25;6.30;99.90
12568;DHT22;6349;50.904;6.136;2024-02-26T01:56:26;6.30;99.90
12568;DHT22;6349;50.904;6.136;2024-02-26T01:58:30;6.30;99.90
12568;DHT22;6349;50.904;6.136;2024-02-26T02:00:31;6.30;99.90
12568;DHT22;6349;50.904;6.136;2024-02-26T02:02:32;6.30;99.90
12568;DHT22;6349;50.904;6.136;2024-02-26T02:04:33;6.30;99.90
12568;DHT22;6349;50.904;6.136;2024-02-26T02:06:36;6.30;99.90
12568;DHT22;6349;50.904;6.136;2024-02-26T02:08:37;6.30;99.90
12568;DHT22;6349;50.904;6.136;2024-02-26T02:10:38;6.30;99.90
12568;DHT22;6349;50.904;6.136;2024-02-26T02:12:40;6.30;99.90
12568;DHT22;6349;50.904;6.136;2024-02-26T02:14:41;6.30;99.90
12568;DHT22;6349;50.904;6.136;2024-02-26T02:16:42;6.30;99.90
12568;DHT22;6349;50.904;6.136;2024-02-26T02:18:42;6.30;99.90
12568;DHT22;6349;50.904;6.136;2024-02-26T02:20:43;6.30;99.90
12568;DHT22;6349;50.904;6.136;2024-02-26T02:22:46;6.30;99.90
12568;DHT22;6349;50.904;6.136;2024-02-26T02:24:48;6.30;99.90
12568;DHT22;6349;50.904;6.136;2024-02-26T02:26:49;6.30;99.90
12568;DHT22;6349;50.904;6.136;2024-02-26T02:28:49;6.20;99.90
12568;DHT22;6349;50.904;6.136;2024-02-26T02:30:50;6.30;99.90
12568;DHT22;6349;50.904;6.136;2024-02-26T02:32:51;6.20;99.90
12568;DHT22;6349;50.904;6.136;2024-02-26T02:34:52;6.20;99.90
12568;DHT22;6349;50.904;6.136;2024-02-26T02:36:53;6.20;99.90
12568;DHT22;6349;50.904;6.136;2024-02-26T02:38:54;6.20;99.90
12568;DHT22;6349;50.904;6.136;2024-02-26T02:40:54;6.20;99.90
12568;DHT22;6349;50.904;6.136;2024-02-26T02:42:55;6.20;99.90
12568;DHT22;6349;50.904;6.136;2024-02-26T02:44:56;6.30;99.90
12568;DHT22;6349;50.904;6.136;2024-02-26T02:46:56;6.30;99.90
12568;DHT22;6349;50.904;6.136;2024-02-26T02:48:57;6.30;99.90
12568;DHT22;6349;50.904;6.136;2024-02-26T02:50:57;6.30;99.90
12568;DHT22;6349;50.904;6.136;2024-02-26T02:52:58;6.30;99.90
12568;DHT22;6349;50.904;6.136;2024-02-26T02:54:59;6.30;99.90
12568;DHT22;6349;50.904;6.136;2024-02-26T02:56:59;6.30;99.90
12568;DHT22;6349;50.904;6.136;2024-02-26T02:59:00;6.30;99.90
12568;DHT22;6349;50.904;6.136;2024-02-26T03:01:00;6.30;99.90
12568;DHT22;6349;50.904;6.136;2024-02-26T03:03:01;6.30;99.90
12568;DHT22;6349;50.904;6.136;2024-02-26T03:05:03;6.30;99.90
12568;DHT22;6349;50.904;6.136;2024-02-26T03:07:04;6.30;99.90
12568;DHT22;6349;50.904;6.136;2024-02-26T03:09:04;6.30;99.90
12568;DHT22;6349;50.904;6.136;2024-02-26T03:11:05;6.30;99.90
12568;DHT22;6349;50.904;6.136;2024-02-26T03:13:06;6.30;99.90
12568;DHT22;6349;50.904;6.136;2024-02-26T03:15:07;6.20;99.90
12568;DHT22;6349;50.904;6.136;2024-02-26T03:17:08;6.30;99.90
12568;DHT22;6349;50.904;6.136;2024-02-26T03:19:08;6.30;99.90
12568;DHT22;6349;50.904;6.136;2024-02-26T03:21:09;6.30;99.90
12568;DHT22;6349;50.904;6.136;2024-02-26T03:23:09;6.20;99.90
12568;DHT22;6349;50.904;6.136;2024-02-26T03:25:13;6.20;99.90
12568;DHT22;6349;50.904;6.136;2024-02-26T03:27:13;6.30;99.90
12568;DHT22;6349;50.904;6.136;2024-02-26T03:29:14;6.30;99.90
12568;DHT22;6349;50.904;6.136;2024-02-26T03:31:15;6.30;99.90
12568;DHT22;6349;50.904;6.136;2024-02-26T03:33:16;6.20;99.90
12568;DHT22;6349;50.904;6.136;2024-02-26T03:35:16;6.20;99.90
12568;DHT22;6349;50.904;6.136;2024-02-26T03:37:17;6.20;99.90
12568;DHT22;6349;50.904;6.136;2024-02-26T03:39:17;6.20;99.90
12568;DHT22;6349;50.904;6.136;2024-02-26T03:41:18;6.20;99.90
12568;DHT22;6349;50.904;6.136;2024-02-26T03:43:18;6.20;99.90
12568;DHT22;6349;50.904;6.136;2024-02-26T03:45:19;6.20;99.90
12568;DHT22;6349;50.904;6.136;2024-02-26T03:47:20;6.20;99.90
12568;DHT22;6349;50.904;6.136;2024-02-26T03:49:20;6.20;99.90
12568;DHT22;6349;50.904;6.136;2024-02-26T03:51:22;6.20;99.90
12568;DHT22;6349;50.904;6.136;2024-02-26T03:53:22;6.20;99.90
12568;DHT22;6349;50.904;6.136;2024-02-26T03:55:23;6.20;99.90
12568;DHT22;6349;50.904;6.136;2024-02-26T03:57:25;6.20;99.90
12568;DHT22;6349;50.904;6.136;2024-02-26T03:59:26;6.20;99.90
12568;DHT22;6349;50.904;6.136;2024-02-26T04:01:27;6.30;99.90
12568;DHT22;6349;50.904;6.136;2024-02-26T04:03:27;6.20;99.90
12568;DHT22;6349;50.904;6.136;2024-02-26T04:05:28;6.20;99.90
12568;DHT22;6349;50.904;6.136;2024-02-26T04:07:28;6.20;99.90
12568;DHT22;6349;50.904;6.136;2024-02-26T04:09:31;6.20;99.90
12568;DHT22;6349;50.904;6.136;2024-02-26T04:11:33;6.20;99.90
12568;DHT22;6349;50.904;6.136;2024-02-26T04:13:33;6.30;99.90
12568;DHT22;6349;50.904;6.136;2024-02-26T04:15:34;6.20;99.90
12568;DHT22;6349;50.904;6.136;2024-02-26T04:17:36;6.20;99.90
12568;DHT22;6349;50.904;6.136;2024-02-26T04:19:37;6.20;99.90
12568;DHT22;6349;50.904;6.136;2024-02-26T04:21:37;6.20;99.90
12568;DHT22;6349;50.904;6.136;2024-02-26T04:23:38;6.20;99.90
12568;DHT22;6349;50.904;6.136;2024-02-26T04:25:39;6.20;99.90
12568;DHT22;6349;50.904;6.136;2024-02-26T04:27:39;6.20;99.90
12568;DHT22;6349;50.904;6.136;2024-02-26T04:29:40;6.20;99.90
12568;DHT22;6349;50.904;6.136;2024-02-26T04:31:40;6.20;99.90
12568;DHT22;6349;50.904;6.136;2024-02-26T04:33:43;6.20;99.90
12568;DHT22;6349;50.904;6.136;2024-02-26T04:35:44;6.20;99.90
12568;DHT22;6349;50.904;6.136;2024-02-26T04:37:44;6.20;99.90
12568;DHT22;6349;50.904;6.136;2024-02-26T04:39:45;6.10;99.90
12568;DHT22;6349;50.904;6.136;2024-02-26T04:41:45;6.10;99.90
12568;DHT22;6349;50.904;6.136;2024-02-26T04:43:46;6.10;99.90
12568;DHT22;6349;50.904;6.136;2024-02-26T04:45:47;6.10;99.90
12568;DHT22;6349;50.904;6.136;2024-02-26T04:47:48;6.10;99.90
12568;DHT22;6349;50.904;6.136;2024-02-26T04:49:51;6.00;99.90
12568;DHT22;6349;50.904;6.136;2024-02-26T04:51:52;6.00;99.90
12568;DHT22;6349;50.904;6.136;2024-02-26T04:53:53;6.00;99.90
12568;DHT22;6349;50.904;6.136;2024-02-26T04:55:54;6.10;99.90
12568;DHT22;6349;50.904;6.136;2024-02-26T04:57:54;6.10;99.90
12568;DHT22;6349;50.904;6.136;2024-02-26T04:59:55;6.10;99.90
12568;DHT22;6349;50.904;6.136;2024-02-26T05:01:55;6.00;99.90
12568;DHT22;6349;50.904;6.136;2024-02-26T05:03:56;6.10;99.90
12568;DHT22;6349;50.904;6.136;2024-02-26T05:05:57;6.10;99.90
12568;DHT22;6349;50.904;6.136;2024-02-26T05:07:58;6.10;99.90
12568;DHT22;6349;50.904;6.136;2024-02-26T05:09:59;6.10;99.90
12568;DHT22;6349;50.904;6.136;2024-02-26T05:11:59;6.10;99.90
12568;DHT22;6349;50.904;6.136;2024-02-26T05:14:00;6.10;99.90
12568;DHT22;6349;50.904;6.136;2024-02-26T05:16:01;6.10;99.90
12568;DHT22;6349;50.904;6.136;2024-02-26T05:18:02;6.10;99.90
12568;DHT22;6349;50.904;6.136;2024-02-26T05:20:03;6.10;99.90
12568;DHT22;6349;50.904;6.136;2024-02-26T05:22:04;6.10;99.90
12568;DHT22;6349;50.904;6.136;2024-02-26T05:24:05;6.10;99.90
12568;DHT22;6349;50.904;6.136;2024-02-26T05:26:06;6.10;99.90
12568;DHT22;6349;50.904;6.136;2024-02-26T05:28:07;6.10;99.90
12568;DHT22;6349;50.904;6.136;2024-02-26T05:30:08;6.10;99.90
12568;DHT22;6349;50.904;6.136;2024-02-26T05:32:08;6.10;99.90
12568;DHT22;6349;50.904;6.136;2024-02-26T05:34:09;6.10;99.90
12568;DHT22;6349;50.904;6.136;2024-02-26T05:36:10;6.00;99.90
12568;DHT22;6349;50.904;6.136;2024-02-26T05:38:10;6.10;99.90
12568;DHT22;6349;50.904;6.136;2024-02-26T05:40:11;6.10;99.90
12568;DHT22;6349;50.904;6.136;2024-02-26T05:42:12;6.10;99.90
12568;DHT22;6349;50.904;6.136;2024-02-26T05:44:13;6.00;99.90
12568;DHT22;6349;50.904;6.136;2024-02-26T05:46:19;6.10;99.90
12568;DHT22;6349;50.904;6.136;2024-02-26T05:48:22;6.10;99.90
12568;DHT22;6349;50.904;6.136;2024-02-26T05:50:22;6.00;99.90
12568;DHT22;6349;50.904;6.136;2024-02-26T05:52:23;6.00;99.90
12568;DHT22;6349;50.904;6.136;2024-02-26T05:54:23;6.00;99.90
12568;DHT22;6349;50.904;6.136;2024-02-26T05:56:24;6.00;99.90
12568;DHT22;6349;50.904;6.136;2024-02-26T05:58:25;6.00;99.90
12568;DHT22;6349;50.904;6.136;2024-02-26T06:00:25;6.00;99.90
12568;DHT22;6349;50.904;6.136;2024-02-26T06:02:26;6.10;99.90
12568;DHT22;6349;50.904;6.136;2024-02-26T06:04:26;6.10;99.90
12568;DHT22;6349;50.904;6.136;2024-02-26T06:06:27;6.10;99.90
12568;DHT22;6349;50.904;6.136;2024-02-26T06:08:28;6.00;99.90
12568;DHT22;6349;50.904;6.136;2024-02-26T06:10:28;6.00;99.90
12568;DHT22;6349;50.904;6.136;2024-02-26T06:12:29;6.00;99.90
12568;DHT22;6349;50.904;6.136;2024-02-26T06:14:31;6.00;99.90
12568;DHT22;6349;50.904;6.136;2024-02-26T06:16:31;6.00;99.90
12568;DHT22;6349;50.904;6.136;2024-02-26T06:18:32;6.00;99.90
12568;DHT22;6349;50.904;6.136;2024-02-26T06:20:33;6.00;99.90
12568;DHT22;6349;50.904;6.136;2024-02-26T06:22:33;6.00;99.90
12568;DHT22;6349;50.904;6.136;2024-02-26T06:24:34;6.00;99.90
12568;DHT22;6349;50.904;6.136;2024-02-26T06:26:34;6.00;99.90
12568;DHT22;6349;50.904;6.136;2024-02-26T06:28:35;6.00;99.90
12568;DHT22;6349;50.904;6.136;2024-02-26T06:30:36;6.00;99.90
12568;DHT22;6349;50.904;6.136;2024-02-26T06:32:37;5.90;99.90
12568;DHT22;6349;50.904;6.136;2024-02-26T06:34:38;5.90;99.90
12568;DHT22;6349;50.904;6.136;2024-02-26T06:36:39;5.90;99.90
12568;DHT22;6349;50.904;6.136;2024-02-26T06:38:40;6.00;99.90
12568;DHT22;6349;50.904;6.136;2024-02-26T06:40:40;6.00;99.90
12568;DHT22;6349;50.904;6.136;2024-02-26T06:42:41;6.00;99.90
12568;DHT22;6349;50.904;6.136;2024-02-26T06:44:44;6.00;99.90
12568;DHT22;6349;50.904;6.136;2024-02-26T06:46:44;6.00;99.90
12568;DHT22;6349;50.904;6.136;2024-02-26T06:48:45;6.00;99.90
12568;DHT22;6349;50.904;6.136;2024-02-26T06:50:45;6.10;99.90
12568;DHT22;6349;50.904;6.136;2024-02-26T06:52:46;6.10;99.90
12568;DHT22;6349;50.904;6.136;2024-02-26T06:54:46;6.10;99.90
12568;DHT22;6349;50.904;6.136;2024-02-26T06:56:48;6.00;99.90
12568;DHT22;6349;50.904;6.136;2024-02-26T06:58:49;6.00;99.90
12568;DHT22;6349;50.904;6.136;2024-02-26T07:00:49;6.00;99.90
12568;DHT22;6349;50.904;6.136;2024-02-26T07:02:50;6.00;99.90
12568;DHT22;6349;50.904;6.136;2024-02-26T07:04:51;6.00;99.90
12568;DHT22;6349;50.904;6.136;2024-02-26T07:06:51;6.00;99.90
12568;DHT22;6349;50.904;6.136;2024-02-26T07:08:52;6.00;99.90
12568;DHT22;6349;50.904;6.136;2024-02-26T07:10:52;6.10;99.90
12568;DHT22;6349;50.904;6.136;2024-02-26T07:12:53;6.00;99.90
12568;DHT22;6349;50.904;6.136;2024-02-26T07:14:54;6.10;99.90
12568;DHT22;6349;50.904;6.136;2024-02-26T07:16:54;6.10;99.90
12568;DHT22;6349;50.904;6.136;2024-02-26T07:18:55;6.10;99.90
12568;DHT22;6349;50.904;6.136;2024-02-26T07:20:55;6.10;99.90
12568;DHT22;6349;50.904;6.136;2024-02-26T07:22:57;6.10;99.90
12568;DHT22;6349;50.904;6.136;2024-02-26T07:24:57;6.10;99.90
12568;DHT22;6349;50.904;6.136;2024-02-26T07:26:58;6.10;99.90
12568;DHT22;6349;50.904;6.136;2024-02-26T07:28:59;6.10;99.90
12568;DHT22;6349;50.904;6.136;2024-02-26T07:31:00;6.10;99.90
12568;DHT22;6349;50.904;6.136;2024-02-26T07:33:00;6.10;99.90
12568;DHT22;6349;50.904;6.136;2024-02-26T07:35:01;6.10;99.90
12568;DHT22;6349;50.904;6.136;2024-02-26T07:37:02;6.10;99.90
12568;DHT22;6349;50.904;6.136;2024-02-26T07:39:03;6.10;99.90
12568;DHT22;6349;50.904;6.136;2024-02-26T07:41:05;6.10;99.90
12568;DHT22;6349;50.904;6.136;2024-02-26T07:43:05;6.00;99.90
12568;DHT22;6349;50.904;6.136;2024-02-26T07:45:06;6.10;99.90
12568;DHT22;6349;50.904;6.136;2024-02-26T07:47:07;6.10;99.90
12568;DHT22;6349;50.904;6.136;2024-02-26T07:49:07;6.10;99.90
12568;DHT22;6349;50.904;6.136;2024-02-26T07:51:08;6.10;99.90
12568;DHT22;6349;50.904;6.136;2024-02-26T07:53:09;6.10;99.90
12568;DHT22;6349;50.904;6.136;2024-02-26T07:55:09;6.10;99.90
12568;DHT22;6349;50.904;6.136;2024-02-26T07:57:10;6.10;99.90
12568;DHT22;6349;50.904;6.136;2024-02-26T07:59:11;6.10;99.90
12568;DHT22;6349;50.904;6.136;2024-02-26T08:01:13;6.10;99.90
12568;DHT22;6349;50.904;6.136;2024-02-26T08:03:15;6.10;99.90
12568;DHT22;6349;50.904;6.136;2024-02-26T08:05:16;6.10;99.90
12568;DHT22;6349;50.904;6.136;2024-02-26T08:07:17;6.10;99.90
12568;DHT22;6349;50.904;6.136;2024-02-26T08:09:17;6.10;99.90
12568;DHT22;6349;50.904;6.136;2024-02-26T08:11:18;6.10;99.90
12568;DHT22;6349;50.904;6.136;2024-02-26T08:13:19;6.10;99.90
12568;DHT22;6349;50.904;6.136;2024-02-26T08:15:19;6.10;99.90
12568;DHT22;6349;50.904;6.136;2024-02-26T08:17:20;6.10;99.90
12568;DHT22;6349;50.904;6.136;2024-02-26T08:19:21;6.10;99.90
12568;DHT22;6349;50.904;6.136;2024-02-26T08:21:21;6.20;99.90
12568;DHT22;6349;50.904;6.136;2024-02-26T08:23:22;6.20;99.90
12568;DHT22;6349;50.904;6.136;2024-02-26T08:25:23;6.20;99.90
12568;DHT22;6349;50.904;6.136;2024-02-26T08:27:24;6.20;99.90
12568;DHT22;6349;50.904;6.136;2024-02-26T08:29:25;6.20;99.90
12568;DHT22;6349;50.904;6.136;2024-02-26T08:31:25;6.10;99.90
12568;DHT22;6349;50.904;6.136;2024-02-26T08:33:27;6.10;99.90
12568;DHT22;6349;50.904;6.136;2024-02-26T08:35:28;6.20;99.90
12568;DHT22;6349;50.904;6.136;2024-02-26T08:37:28;6.20;99.90
12568;DHT22;6349;50.904;6.136;2024-02-26T08:39:29;6.10;99.90
12568;DHT22;6349;50.904;6.136;2024-02-26T08:41:30;6.20;99.90
12568;DHT22;6349;50.904;6.136;2024-02-26T08:43:30;6.20;99.90
12568;DHT22;6349;50.904;6.136;2024-02-26T08:45:31;6.20;99.90
12568;DHT22;6349;50.904;6.136;2024-02-26T08:47:32;6.20;99.90
12568;DHT22;6349;50.904;6.136;2024-02-26T08:49:33;6.20;99.90
12568;DHT22;6349;50.904;6.136;2024-02-26T08:51:33;6.20;99.90
12568;DHT22;6349;50.904;6.136;2024-02-26T08:53:35;6.20;99.90
12568;DHT22;6349;50.904;6.136;2024-02-26T08:55:35;6.20;99.90
12568;DHT22;6349;50.904;6.136;2024-02-26T08:57:36;6.20;99.90
12568;DHT22;6349;50.904;6.136;2024-02-26T08:59:37;6.20;99.90
12568;DHT22;6349;50.904;6.136;2024-02-26T09:01:37;6.20;99.90
12568;DHT22;6349;50.904;6.136;2024-02-26T09:03:38;6.20;99.90
12568;DHT22;6349;50.904;6.136;2024-02-26T09:05:38;6.20;99.90
12568;DHT22;6349;50.904;6.136;2024-02-26T09:07:39;6.20;99.90
12568;DHT22;6349;50.904;6.136;2024-02-26T09:09:40;6.20;99.90
12568;DHT22;6349;50.904;6.136;2024-02-26T09:11:40;6.20;99.90
12568;DHT22;6349;50.904;6.136;2024-02-26T09:13:41;6.20;99.90
12568;DHT22;6349;50.904;6.136;2024-02-26T09:15:42;6.20;99.90
12568;DHT22;6349;50.904;6.136;2024-02-26T09:17:43;6.20;99.90
12568;DHT22;6349;50.904;6.136;2024-02-26T09:19:45;6.20;99.90
12568;DHT22;6349;50.904;6.136;2024-02-26T09:21:45;6.20;99.90
12568;DHT22;6349;50.904;6.136;2024-02-26T09:23:46;6.30;99.90
12568;DHT22;6349;50.904;6.136;2024-02-26T09:25:47;6.30;99.90
12568;DHT22;6349;50.904;6.136;2024-02-26T09:27:47;6.20;99.90
12568;DHT22;6349;50.904;6.136;2024-02-26T09:29:48;6.20;99.90
12568;DHT22;6349;50.904;6.136;2024-02-26T09:31:49;6.20;99.90
12568;DHT22;6349;50.904;6.136;2024-02-26T09:33:49;6.30;99.90
12568;DHT22;6349;50.904;6.136;2024-02-26T09:35:50;6.30;99.90
12568;DHT22;6349;50.904;6.136;2024-02-26T09:37:50;6.30;99.90
12568;DHT22;6349;50.904;6.136;2024-02-26T09:39:51;6.30;99.90
12568;DHT22;6349;50.904;6.136;2024-02-26T09:41:52;6.30;99.90
12568;DHT22;6349;50.904;6.136;2024-02-26T09:43:56;6.30;99.90
12568;DHT22;6349;50.904;6.136;2024-02-26T09:45:57;6.30;99.90
12568;DHT22;6349;50.904;6.136;2024-02-26T09:47:57;6.30;99.90
12568;DHT22;6349;50.904;6.136;2024-02-26T09:49:59;6.30;99.90
12568;DHT22;6349;50.904;6.136;2024-02-26T09:52:04;6.30;99.90
12568;DHT22;6349;50.904;6.136;2024-02-26T09:54:07;6.30;99.90
12568;DHT22;6349;50.904;6.136;2024-02-26T09:56:09;6.30;99.90
12568;DHT22;6349;50.904;6.136;2024-02-26T09:58:11;6.30;99.90
12568;DHT22;6349;50.904;6.136;2024-02-26T10:00:20;6.30;99.90
12568;DHT22;6349;50.904;6.136;2024-02-26T10:02:21;6.30;99.90
12568;DHT22;6349;50.904;6.136;2024-02-26T10:04:24;6.30;99.90
12568;DHT22;6349;50.904;6.136;2024-02-26T10:06:26;6.30;99.90
12568;DHT22;6349;50.904;6.136;2024-02-26T10:08:28;6.30;99.90
12568;DHT22;6349;50.904;6.136;2024-02-26T10:10:30;6.30;99.90
12568;DHT22;6349;50.904;6.136;2024-02-26T10:12:32;6.30;99.90
12568;DHT22;6349;50.904;6.136;2024-02-26T10:14:33;6.30;99.90
12568;DHT22;6349;50.904;6.136;2024-02-26T10:16:34;6.30;99.90
12568;DHT22;6349;50.904;6.136;2024-02-26T10:18:49;6.30;99.90
12568;DHT22;6349;50.904;6.136;2024-02-26T10:21:02;6.30;99.90
12568;DHT22;6349;50.904;6.136;2024-02-26T10:23:03;6.30;99.90
12568;DHT22;6349;50.904;6.136;2024-02-26T10:25:05;6.30;99.90
12568;DHT22;6349;50.904;6.136;2024-02-26T10:27:06;6.30;99.90
12568;DHT22;6349;50.904;6.136;2024-02-26T10:29:09;6.30;99.90
12568;DHT22;6349;50.904;6.136;2024-02-26T10:31:10;6.40;99.90
12568;DHT22;6349;50.904;6.136;2024-02-26T10:33:11;6.50;99.90
12568;DHT22;6349;50.904;6.136;2024-02-26T10:35:12;6.50;99.90
12568;DHT22;6349;50.904;6.136;2024-02-26T10:37:12;6.50;99.90
12568;DHT22;6349;50.904;6.136;2024-02-26T10:39:14;6.50;99.90
12568;DHT22;6349;50.904;6.136;2024-02-26T10:41:15;6.50;99.90
12568;DHT22;6349;50.904;6.136;2024-02-26T10:43:16;6.50;99.90
12568;DHT22;6349;50.904;6.136;2024-02-26T10:45:16;6.50;99.90
12568;DHT22;6349;50.904;6.136;2024-02-26T10:47:17;6.60;99.90
12568;DHT22;6349;50.904;6.136;2024-02-26T10:49:18;6.70;99.90
12568;DHT22;6349;50.904;6.136;2024-02-26T10:51:25;6.70;99.90
12568;DHT22;6349;50.904;6.136;2024-02-26T10:53:29;6.70;99.90
12568;DHT22;6349;50.904;6.136;2024-02-26T10:55:31;6.70;99.90
12568;DHT22;6349;50.904;6.136;2024-02-26T10:57:35;6.80;99.90
12568;DHT22;6349;50.904;6.136;2024-02-26T10:59:39;6.80;99.90
12568;DHT22;6349;50.904;6.136;2024-02-26T11:01:40;6.90;99.90
12568;DHT22;6349;50.904;6.136;2024-02-26T11:03:49;7.00;99.90
12568;DHT22;6349;50.904;6.136;2024-02-26T11:05:51;7.00;99.90
12568;DHT22;6349;50.904;6.136;2024-02-26T11:07:52;7.00;99.90
12568;DHT22;6349;50.904;6.136;2024-02-26T11:09:53;7.10;99.90
12568;DHT22;6349;50.904;6.136;2024-02-26T11:11:57;7.10;99.90
12568;DHT22;6349;50.904;6.136;2024-02-26T11:13:59;7.10;99.90
12568;DHT22;6349;50.904;6.136;2024-02-26T11:16:01;7.00;99.90
12568;DHT22;6349;50.904;6.136;2024-02-26T11:18:03;7.00;99.90
12568;DHT22;6349;50.904;6.136;2024-02-26T11:20:05;7.00;99.90
12568;DHT22;6349;50.904;6.136;2024-02-26T11:22:07;7.00;99.90
12568;DHT22;6349;50.904;6.136;2024-02-26T11:24:14;7.00;99.90
12568;DHT22;6349;50.904;6.136;2024-02-26T11:26:16;7.00;99.90
12568;DHT22;6349;50.904;6.136;2024-02-26T11:28:18;7.00;99.90
12568;DHT22;6349;50.904;6.136;2024-02-26T11:30:20;7.00;99.90
12568;DHT22;6349;50.904;6.136;2024-02-26T11:32:21;7.10;99.90
12568;DHT22;6349;50.904;6.136;2024-02-26T11:34:22;7.10;99.90
12568;DHT22;6349;50.904;6.136;2024-02-26T11:36:24;7.20;99.90
12568;DHT22;6349;50.904;6.136;2024-02-26T11:38:27;7.10;99.90
12568;DHT22;6349;50.904;6.136;2024-02-26T11:40:28;7.00;99.90
12568;DHT22;6349;50.904;6.136;2024-02-26T11:42:29;7.00;99.90
12568;DHT22;6349;50.904;6.136;2024-02-26T11:44:30;7.00;99.90
12568;DHT22;6349;50.904;6.136;2024-02-26T11:46:32;7.00;99.90
12568;DHT22;6349;50.904;6.136;2024-02-26T11:48:33;6.90;99.90
12568;DHT22;6349;50.904;6.136;2024-02-26T11:50:35;6.90;99.90
12568;DHT22;6349;50.904;6.136;2024-02-26T11:52:36;6.90;99.90
12568;DHT22;6349;50.904;6.136;2024-02-26T11:54:47;7.00;99.90
12568;DHT22;6349;50.904;6.136;2024-02-26T11:56:48;7.00;99.90
12568;DHT22;6349;50.904;6.136;2024-02-26T11:58:48;7.00;99.90
12568;DHT22;6349;50.904;6.136;2024-02-26T12:00:57;6.90;99.90
12568;DHT22;6349;50.904;6.136;2024-02-26T12:02:58;7.00;99.90
12568;DHT22;6349;50.904;6.136;2024-02-26T12:05:15;7.00;99.90
12568;DHT22;6349;50.904;6.136;2024-02-26T12:07:16;7.00;99.90
12568;DHT22;6349;50.904;6.136;2024-02-26T12:09:40;7.00;99.90
12568;DHT22;6349;50.904;6.136;2024-02-26T12:11:42;7.00;99.90
12568;DHT22;6349;50.904;6.136;2024-02-26T12:13:47;7.00;99.90
12568;DHT22;6349;50.904;6.136;2024-02-26T12:15:57;7.00;99.90
12568;DHT22;6349;50.904;6.136;2024-02-26T12:18:00;7.00;99.90
12568;DHT22;6349;50.904;6.136;2024-02-26T12:20:11;7.00;99.90
12568;DHT22;6349;50.904;6.136;2024-02-26T12:22:13;7.00;99.90
12568;DHT22;6349;50.904;6.136;2024-02-26T12:24:15;7.00;99.90
12568;DHT22;6349;50.904;6.136;2024-02-26T12:26:18;7.00;99.90
12568;DHT22;6349;50.904;6.136;2024-02-26T12:28:19;6.90;99.90
12568;DHT22;6349;50.904;6.136;2024-02-26T12:30:19;6.90;99.90
12568;DHT22;6349;50.904;6.136;2024-02-26T12:32:20;6.90;99.90
12568;DHT22;6349;50.904;6.136;2024-02-26T12:34:21;6.90;99.90
12568;DHT22;6349;50.904;6.136;2024-02-26T12:36:22;6.90;99.90
12568;DHT22;6349;50.904;6.136;2024-02-26T12:38:27;6.90;99.90
12568;DHT22;6349;50.904;6.136;2024-02-26T12:40:27;6.90;99.90
12568;DHT22;6349;50.904;6.136;2024-02-26T12:42:29;6.90;99.90
12568;DHT22;6349;50.904;6.136;2024-02-26T12:44:31;6.90;99.90
12568;DHT22;6349;50.904;6.136;2024-02-26T12:46:31;7.00;99.90
12568;DHT22;6349;50.904;6.136;2024-02-26T12:48:32;6.90;99.90
12568;DHT22;6349;50.904;6.136;2024-02-26T12:50:33;7.00;99.90
12568;DHT22;6349;50.904;6.136;2024-02-26T12:52:36;7.00;99.90
12568;DHT22;6349;50.904;6.136;2024-02-26T12:54:37;7.00;99.90
12568;DHT22;6349;50.904;6.136;2024-02-26T12:56:42;6.90;99.90
12568;DHT22;6349;50.904;6.136;2024-02-26T12:58:43;7.00;99.90
12568;DHT22;6349;50.904;6.136;2024-02-26T13:00:43;7.00;99.90
12568;DHT22;6349;50.904;6.136;2024-02-26T13:02:44;7.00;99.90
12568;DHT22;6349;50.904;6.136;2024-02-26T13:04:46;6.90;99.90
12568;DHT22;6349;50.904;6.136;2024-02-26T13:06:46;6.90;99.90
12568;DHT22;6349;50.904;6.136;2024-02-26T13:08:47;6.90;99.90
12568;DHT22;6349;50.904;6.136;2024-02-26T13:10:48;6.90;99.90
12568;DHT22;6349;50.904;6.136;2024-02-26T13:12:50;6.80;99.90